Terminal Aerodrome Forecast
Issued by NWS Grand Forks, ND

Home | Current Version | Previous Version | Text Only | Print | Product List | Glossary Off
Versions: 1 2 3 4 5 6 7 8 9 10 11 12 13 14 15 16 17 18 19 20 21 22 23 24

000
FTUS43 KFGF 270400 AAA
TAFGFK
TAF AMD
KGFK 270433Z 2705/2724 36008KT 2SM BR BKN002
     FM271400 17004KT P6SM BKN015
     FM271800 16014KT P6SM BKN250=

USA.gov is the U.S. government's official web portal to all federal, state and local government web resources and services.